Time,TemperatureF,DewpointF,PressureIn,WindDirection,WindDirectionDegrees,WindSpeedMPH,WindSpeedGustMPH,Humidity,HourlyPrecipIn,Conditions,Clouds,dailyrainin,SolarRadiationWatts/m^2,SoftwareType,DateUTC
2013-09-08 00:02:00,71.8,66.7,29.99,ENE,75,3.0,9.9,84,0.00,CLR,,0.00,0.0,WeatherDisplay:10.37,2013-09-08 05:02:00,
2013-09-08 00:07:00,71.8,66.7,29.99,ENE,74,0.6,2.3,84,0.00,CLR,,0.00,0.0,WeatherDisplay:10.37,2013-09-08 05:07:00,
2013-09-08 00:12:00,71.8,67.0,29.99,ESE,114,4.2,9.2,85,0.00,CLR,,0.00,0.0,WeatherDisplay:10.37,2013-09-08 05:12:00,
2013-09-08 00:17:00,71.6,66.8,29.99,NNE,25,5.8,13.2,85,0.00,CLR,,0.00,0.0,WeatherDisplay:10.37,2013-09-08 05:17:00,
2013-09-08 00:22:00,71.6,67.2,29.99,NE,55,4.4,8.1,86,0.00,CLR,,0.00,0.0,WeatherDisplay:10.37,2013-09-08 05:22:00,
2013-09-08 00:27:00,71.6,67.2,29.99,East,100,3.9,8.8,86,0.00,CLR,,0.00,0.0,WeatherDisplay:10.37,2013-09-08 05:27:00,
2013-09-08 00:32:00,71.5,67.1,29.99,North,9,1.3,6.9,86,0.00,CLR,,0.00,0.0,WeatherDisplay:10.37,2013-09-08 05:32:00,
2013-09-08 00:37:00,71.3,66.9,29.99,NNE,28,1.2,6.9,86,0.00,CLR,,0.00,0.0,WeatherDisplay:10.37,2013-09-08 05:37:00,
2013-09-08 00:42:00,71.1,67.0,29.99,ENE,63,0.7,4.6,87,0.00,BKN,,0.00,0.0,WeatherDisplay:10.37,2013-09-08 05:42:00,
2013-09-08 00:47:00,70.9,66.8,29.99,East,93,5.4,12.1,87,0.00,BKN,,0.00,0.0,WeatherDisplay:10.37,2013-09-08 05:47:00,
2013-09-08 00:52:00,70.8,67.1,29.99,ENE,60,0.0,0.0,88,0.00,BKN,,0.00,0.0,WeatherDisplay:10.37,2013-09-08 05:52:00,
2013-09-08 00:57:00,70.4,67.0,29.99,ENE,58,0.1,8.1,89,0.00,BKN,,0.00,0.0,WeatherDisplay:10.37,2013-09-08 05:57:00,
2013-09-08 01:02:00,70.3,66.9,30.00,ENE,59,0.5,6.9,89,0.00,OVC,,0.00,0.0,WeatherDisplay:10.37,2013-09-08 06:02:00,
2013-09-08 01:07:00,70.1,67.0,30.00,East,94,2.3,5.5,90,0.00,OVC,,0.00,0.0,WeatherDisplay:10.37,2013-09-08 06:07:00,
2013-09-08 01:12:00,69.8,66.7,30.00,NNW,342,1.1,8.1,90,0.00,OVC,,0.00,0.0,WeatherDisplay:10.37,2013-09-08 06:12:00,
2013-09-08 01:17:00,69.4,66.3,30.00,NE,51,0.1,2.3,90,0.00,OVC,,0.00,0.0,WeatherDisplay:10.37,2013-09-08 06:17:00,
2013-09-08 01:22:00,68.9,65.8,30.00,NNE,22,0.0,1.1,90,0.00,OVC,,0.00,0.0,WeatherDisplay:10.37,2013-09-08 06:22:00,
2013-09-08 01:27:00,68.6,65.5,30.00,NNE,19,5.5,8.8,90,0.00,OVC,,0.00,0.0,WeatherDisplay:10.37,2013-09-08 06:27:00,
2013-09-08 01:32:00,68.3,65.3,30.01,NNE,28,0.1,4.6,90,0.00,OVC,,0.00,0.0,WeatherDisplay:10.37,2013-09-08 06:32:00,
2013-09-08 01:37:00,68.1,64.7,30.01,NE,55,0.1,1.2,89,0.00,OVC,,0.00,0.0,WeatherDisplay:10.37,2013-09-08 06:37:00,
2013-09-08 01:42:00,67.8,64.4,30.01,NE,54,0.1,1.2,89,0.00,OVC,,0.00,0.0,WeatherDisplay:10.37,2013-09-08 06:42:00,
2013-09-08 01:47:00,67.8,64.1,30.01,ENE,70,0.0,1.2,88,0.00,OVC,,0.00,0.0,WeatherDisplay:10.37,2013-09-08 06:47:00,
2013-09-08 01:52:00,67.8,64.1,30.01,East,83,0.0,0.0,88,0.00,OVC,,0.00,0.0,WeatherDisplay:10.37,2013-09-08 06:52:00,
2013-09-08 01:57:00,67.8,63.8,30.01,East,84,1.1,3.5,87,0.00,OVC,,0.00,0.0,WeatherDisplay:10.37,2013-09-08 06:57:00,
2013-09-08 02:02:00,67.6,63.6,30.01,East,86,0.0,0.0,87,0.00,OVC,,0.00,0.0,WeatherDisplay:10.37,2013-09-08 07:02:00,
2013-09-08 02:07:00,67.6,63.6,30.01,NE,44,1.2,3.3,87,0.00,OVC,,0.00,0.0,WeatherDisplay:10.37,2013-09-08 07:07:00,
2013-09-08 02:12:00,67.6,63.3,30.01,ENE,59,0.4,3.5,86,0.00,OVC,,0.00,0.0,WeatherDisplay:10.37,2013-09-08 07:12:00,
2013-09-08 02:17:00,67.4,63.4,30.01,NE,43,0.0,3.5,87,0.00,OVC,,0.00,0.0,WeatherDisplay:10.37,2013-09-08 07:17:00,
2013-09-08 02:22:00,67.4,63.4,30.01,NE,42,0.2,2.3,87,0.00,OVC,,0.00,0.0,WeatherDisplay:10.37,2013-09-08 07:22:00,
2013-09-08 02:27:00,67.3,63.0,30.01,ENE,74,0.0,1.1,86,0.00,OVC,,0.00,0.0,WeatherDisplay:10.37,2013-09-08 07:27:00,
2013-09-08 02:32:00,67.3,63.0,30.02,NNE,15,0.1,1.2,86,0.00,OVC,,0.00,0.0,WeatherDisplay:10.37,2013-09-08 07:32:00,
2013-09-08 02:37:00,66.9,62.6,30.02,ENE,60,5.4,10.4,86,0.00,OVC,,0.00,0.0,WeatherDisplay:10.37,2013-09-08 07:37:00,
2013-09-08 02:42:00,66.6,62.3,30.02,NE,34,1.2,5.8,86,0.00,OVC,,0.00,0.0,WeatherDisplay:10.37,2013-09-08 07:42:00,
2013-09-08 02:47:00,66.3,61.7,30.02,NE,47,1.1,11.5,85,0.00,OVC,,0.00,0.0,WeatherDisplay:10.37,2013-09-08 07:47:00,
2013-09-08 02:52:00,66.1,61.5,30.02,ENE,59,1.4,8.1,85,0.00,OVC,,0.00,0.0,WeatherDisplay:10.37,2013-09-08 07:52:00,
2013-09-08 02:57:00,66.1,61.1,30.02,East,80,0.9,5.8,84,0.00,OVC,,0.00,0.0,WeatherDisplay:10.37,2013-09-08 07:57:00,
2013-09-08 03:02:00,66.0,60.7,30.02,NE,39,0.1,3.5,83,0.00,OVC,,0.00,0.0,WeatherDisplay:10.37,2013-09-08 08:02:00,
2013-09-08 03:07:00,65.8,60.5,30.02,East,94,3.5,9.2,83,0.00,OVC,,0.00,0.0,WeatherDisplay:10.37,2013-09-08 08:07:00,
2013-09-08 03:12:00,65.8,60.2,30.02,ENE,67,0.0,1.2,82,0.00,OVC,,0.00,0.0,WeatherDisplay:10.37,2013-09-08 08:12:00,
2013-09-08 03:17:00,65.8,60.2,30.02,ENE,62,0.0,0.0,82,0.00,OVC,,0.00,0.0,WeatherDisplay:10.37,2013-09-08 08:17:00,
2013-09-08 03:22:00,65.8,59.8,30.02,NE,38,0.3,6.9,81,0.00,OVC,,0.00,0.0,WeatherDisplay:10.37,2013-09-08 08:22:00,
2013-09-08 03:27:00,65.8,59.8,30.02,ENE,61,0.0,1.2,81,0.00,OVC,,0.00,0.0,WeatherDisplay:10.37,2013-09-08 08:27:00,
2013-09-08 03:32:00,65.8,59.8,30.03,ENE,76,0.4,2.3,81,0.00,OVC,,0.00,0.0,WeatherDisplay:10.37,2013-09-08 08:32:00,
2013-09-08 03:37:00,65.8,59.8,30.03,NE,49,0.0,0.0,81,0.00,OVC,,0.00,0.0,WeatherDisplay:10.37,2013-09-08 08:37:00,
2013-09-08 03:42:00,65.6,59.6,30.03,ENE,65,0.0,0.0,81,0.00,OVC,,0.00,0.0,WeatherDisplay:10.37,2013-09-08 08:42:00,
2013-09-08 03:47:00,65.6,59.6,30.02,ENE,59,1.8,5.8,81,0.00,OVC,,0.00,0.0,WeatherDisplay:10.37,2013-09-08 08:47:00,
2013-09-08 03:52:00,65.5,59.5,30.02,NE,38,0.2,4.4,81,0.00,OVC,,0.00,0.0,WeatherDisplay:10.37,2013-09-08 08:52:00,
2013-09-08 03:57:00,65.5,59.5,30.02,NE,54,0.0,0.0,81,0.00,OVC,,0.00,0.0,WeatherDisplay:10.37,2013-09-08 08:57:00,
2013-09-08 04:02:00,65.3,59.3,30.02,East,80,0.0,0.0,81,0.00,OVC,,0.00,0.0,WeatherDisplay:10.37,2013-09-08 09:02:00,
2013-09-08 04:07:00,65.3,59.3,30.02,NE,53,0.0,0.0,81,0.00,OVC,,0.00,0.0,WeatherDisplay:10.37,2013-09-08 09:07:00,
2013-09-08 04:12:00,65.3,59.3,30.02,East,96,1.1,7.7,81,0.00,OVC,,0.00,0.0,WeatherDisplay:10.37,2013-09-08 09:12:00,
2013-09-08 04:17:00,65.2,59.2,30.02,East,83,0.0,0.0,81,0.00,OVC,,0.00,0.0,WeatherDisplay:10.37,2013-09-08 09:17:00,
2013-09-08 04:22:00,65.2,58.9,30.02,ENE,67,0.5,5.5,80,0.00,OVC,,0.00,0.0,WeatherDisplay:10.37,2013-09-08 09:22:00,
2013-09-08 04:27:00,65.0,58.3,30.02,East,92,3.3,9.2,79,0.00,OVC,,0.00,0.0,WeatherDisplay:10.37,2013-09-08 09:27:00,
2013-09-08 04:32:00,64.8,58.1,30.02,ENE,78,0.5,8.1,79,0.00,OVC,,0.00,0.0,WeatherDisplay:10.37,2013-09-08 09:32:00,
2013-09-08 04:37:00,64.8,58.1,30.02,East,94,0.8,7.7,79,0.00,OVC,,0.00,0.0,WeatherDisplay:10.37,2013-09-08 09:37:00,
2013-09-08 04:42:00,64.8,58.1,30.02,ENE,71,0.0,1.2,79,0.00,OVC,,0.00,0.0,WeatherDisplay:10.37,2013-09-08 09:42:00,
2013-09-08 04:47:00,64.8,58.1,30.02,North,350,1.7,12.1,79,0.00,OVC,,0.00,0.0,WeatherDisplay:10.37,2013-09-08 09:47:00,
2013-09-08 04:52:00,64.7,57.3,30.02,ENE,69,2.2,13.2,77,0.00,OVC,,0.00,0.0,WeatherDisplay:10.37,2013-09-08 09:52:00,
2013-09-08 04:57:00,64.5,57.1,30.02,NE,36,0.0,1.2,77,0.00,OVC,,0.00,0.0,WeatherDisplay:10.37,2013-09-08 09:57:00,
2013-09-08 05:02:00,64.3,56.9,30.02,NE,41,0.0,1.1,77,0.00,OVC,,0.00,0.0,WeatherDisplay:10.37,2013-09-08 10:02:00,
2013-09-08 05:07:00,64.2,57.2,30.02,NE,34,0.2,9.2,78,0.00,OVC,,0.00,0.0,WeatherDisplay:10.37,2013-09-08 10:07:00,
2013-09-08 05:12:00,63.9,56.9,30.02,NE,42,0.0,0.0,78,0.00,OVC,,0.00,0.0,WeatherDisplay:10.37,2013-09-08 10:12:00,
2013-09-08 05:17:00,63.7,57.1,30.02,ENE,69,1.2,4.6,79,0.00,OVC,,0.00,0.0,WeatherDisplay:10.37,2013-09-08 10:17:00,
2013-09-08 05:22:00,63.4,56.8,30.02,ENE,73,0.0,1.2,79,0.00,SCT,,0.00,0.0,WeatherDisplay:10.37,2013-09-08 10:22:00,
2013-09-08 05:27:00,63.2,56.9,30.02,ENE,60,0.0,0.0,80,0.00,SCT,,0.00,0.0,WeatherDisplay:10.37,2013-09-08 10:27:00,
2013-09-08 05:32:00,63.1,56.8,30.02,East,79,1.6,5.8,80,0.00,SCT,,0.00,0.0,WeatherDisplay:10.37,2013-09-08 10:32:00,
2013-09-08 05:37:00,62.9,57.0,30.02,East,82,0.0,0.0,81,0.00,SCT,,0.00,0.0,WeatherDisplay:10.37,2013-09-08 10:37:00,
2013-09-08 05:42:00,62.7,56.8,30.02,East,82,0.0,0.0,81,0.00,SCT,,0.00,0.0,WeatherDisplay:10.37,2013-09-08 10:42:00,
2013-09-08 05:47:00,62.6,56.7,30.02,NE,51,2.3,8.1,81,0.00,SCT,,0.00,0.0,WeatherDisplay:10.37,2013-09-08 10:47:00,
2013-09-08 05:52:00,62.4,56.5,30.02,ENE,64,1.3,5.8,81,0.00,SCT,,0.00,0.0,WeatherDisplay:10.37,2013-09-08 10:52:00,
2013-09-08 05:57:00,62.3,56.4,30.02,East,88,0.0,1.2,81,0.00,SCT,,0.00,0.0,WeatherDisplay:10.37,2013-09-08 10:57:00,
2013-09-08 06:02:00,62.3,56.7,30.03,East,82,1.6,8.1,82,0.00,SCT,,0.00,0.0,WeatherDisplay:10.37,2013-09-08 11:02:00,
2013-09-08 06:07:00,62.1,56.5,30.03,ENE,66,1.3,4.4,82,0.00,SCT,,0.00,0.0,WeatherDisplay:10.37,2013-09-08 11:07:00,
2013-09-08 06:12:00,62.0,56.4,30.03,ENE,63,0.1,1.1,82,0.00,SCT,,0.00,0.0,WeatherDisplay:10.37,2013-09-08 11:12:00,
2013-09-08 06:17:00,62.0,56.4,30.03,East,88,0.8,5.8,82,0.00,SCT,,0.00,0.0,WeatherDisplay:10.37,2013-09-08 11:17:00,
2013-09-08 06:22:00,61.8,56.2,30.03,ENE,63,0.0,2.3,82,0.00,SCT,,0.00,0.0,WeatherDisplay:10.37,2013-09-08 11:22:00,
2013-09-08 06:27:00,61.6,56.4,30.03,East,87,0.0,3.5,83,0.00,SCT,,0.00,0.0,WeatherDisplay:10.37,2013-09-08 11:27:00,
2013-09-08 06:32:00,61.6,56.4,30.04,ENE,78,0.1,3.3,83,0.00,SCT,,0.00,0.0,WeatherDisplay:10.37,2013-09-08 11:32:00,
2013-09-08 06:37:00,61.5,56.3,30.04,East,82,0.0,0.0,83,0.00,SCT,,0.00,5.0,WeatherDisplay:10.37,2013-09-08 11:37:00,
2013-09-08 06:42:00,61.3,56.1,30.04,East,94,2.4,8.1,83,0.00,SCT,,0.00,7.0,WeatherDisplay:10.37,2013-09-08 11:42:00,
2013-09-08 06:47:00,61.3,56.1,30.04,East,94,0.0,0.0,83,0.00,SCT,,0.00,12.0,WeatherDisplay:10.37,2013-09-08 11:47:00,
2013-09-08 06:52:00,61.2,56.0,30.04,East,85,0.0,0.0,83,0.00,SCT,,0.00,18.0,WeatherDisplay:10.37,2013-09-08 11:52:00,
2013-09-08 06:57:00,61.2,56.3,30.04,East,83,0.0,0.0,84,0.00,SCT,,0.00,23.0,WeatherDisplay:10.37,2013-09-08 11:57:00,
2013-09-08 07:02:00,61.2,56.3,30.04,East,79,0.2,2.3,84,0.00,CLR,,0.00,30.0,WeatherDisplay:10.37,2013-09-08 12:02:00,
2013-09-08 07:07:00,61.0,56.1,30.04,East,87,0.0,0.0,84,0.00,CLR,,0.00,37.0,WeatherDisplay:10.37,2013-09-08 12:07:00,
2013-09-08 07:12:00,61.0,56.1,30.04,East,98,0.0,4.6,84,0.00,CLR,,0.00,37.0,WeatherDisplay:10.37,2013-09-08 12:12:00,
2013-09-08 07:17:00,61.0,56.1,30.04,ENE,74,1.7,3.5,84,0.00,CLR,,0.00,39.0,WeatherDisplay:10.37,2013-09-08 12:17:00,
2013-09-08 07:22:00,61.2,56.3,30.04,ENE,75,0.0,0.0,84,0.00,SCT,,0.00,90.0,WeatherDisplay:10.37,2013-09-08 12:22:00,
2013-09-08 07:27:00,61.2,56.3,30.04,East,94,0.0,4.6,84,0.00,SCT,,0.00,120.0,WeatherDisplay:10.37,2013-09-08 12:27:00,
2013-09-08 07:32:00,61.3,56.4,30.03,ENE,76,1.0,6.6,84,0.00,SCT,,0.00,81.0,WeatherDisplay:10.37,2013-09-08 12:32:00,
2013-09-08 07:37:00,61.5,56.6,30.03,NNE,26,0.5,3.3,84,0.00,SCT,,0.00,86.0,WeatherDisplay:10.37,2013-09-08 12:37:00,
2013-09-08 07:42:00,61.5,56.6,30.03,NE,46,0.0,0.0,84,0.00,BKN,,0.00,88.0,WeatherDisplay:10.37,2013-09-08 12:42:00,
2013-09-08 07:47:00,61.5,56.6,30.03,East,92,0.0,1.2,84,0.00,BKN,,0.00,90.0,WeatherDisplay:10.37,2013-09-08 12:47:00,
2013-09-08 07:52:00,61.6,56.7,30.03,East,82,0.0,0.0,84,0.00,BKN,,0.00,98.0,WeatherDisplay:10.37,2013-09-08 12:52:00,
2013-09-08 07:57:00,61.6,56.7,30.03,East,95,0.0,1.2,84,0.00,BKN,,0.00,91.0,WeatherDisplay:10.37,2013-09-08 12:57:00,
2013-09-08 08:02:00,61.8,56.9,30.03,East,88,0.7,3.5,84,0.00,OVC,,0.00,98.0,WeatherDisplay:10.37,2013-09-08 13:02:00,
2013-09-08 08:07:00,61.8,56.9,30.03,East,80,3.3,6.9,84,0.00,OVC,,0.00,132.0,WeatherDisplay:10.37,2013-09-08 13:07:00,
2013-09-08 08:12:00,61.8,56.9,30.03,ENE,69,0.0,0.0,84,0.00,OVC,,0.00,160.0,WeatherDisplay:10.37,2013-09-08 13:12:00,
2013-09-08 08:17:00,62.1,57.2,30.04,ESE,110,0.0,0.0,84,0.00,OVC,,0.00,165.0,WeatherDisplay:10.37,2013-09-08 13:17:00,
2013-09-08 08:22:00,62.4,57.2,30.04,ESE,115,2.0,6.6,83,0.00,OVC,,0.00,142.0,WeatherDisplay:10.37,2013-09-08 13:22:00,
2013-09-08 08:27:00,62.6,57.4,30.04,ENE,77,0.0,0.0,83,0.00,OVC,,0.00,127.0,WeatherDisplay:10.37,2013-09-08 13:27:00,
2013-09-08 08:32:00,62.6,57.4,30.03,ENE,75,0.0,1.2,83,0.00,OVC,,0.00,162.0,WeatherDisplay:10.37,2013-09-08 13:32:00,
2013-09-08 08:37:00,62.9,57.7,30.03,SSE,167,0.4,3.5,83,0.00,OVC,,0.00,165.0,WeatherDisplay:10.37,2013-09-08 13:37:00,
2013-09-08 08:42:00,62.9,57.3,30.03,ENE,69,2.3,5.8,82,0.00,OVC,,0.00,132.0,WeatherDisplay:10.37,2013-09-08 13:42:00,
2013-09-08 08:47:00,63.2,57.6,30.04,East,99,3.9,6.6,82,0.00,OVC,,0.00,144.0,WeatherDisplay:10.37,2013-09-08 13:47:00,
2013-09-08 08:52:00,63.2,57.6,30.04,ENE,57,1.5,6.6,82,0.00,OVC,,0.00,202.0,WeatherDisplay:10.37,2013-09-08 13:52:00,
2013-09-08 08:57:00,63.5,57.6,30.04,ENE,72,1.0,4.6,81,0.00,OVC,,0.00,285.0,WeatherDisplay:10.37,2013-09-08 13:57:00,
2013-09-08 09:02:00,63.9,57.6,30.04,East,88,0.1,1.2,80,0.00,BKN,,0.00,144.0,WeatherDisplay:10.37,2013-09-08 14:02:00,
2013-09-08 09:07:00,64.0,57.4,30.04,ESE,113,3.0,8.8,79,0.00,BKN,,0.00,174.0,WeatherDisplay:10.37,2013-09-08 14:07:00,
2013-09-08 09:12:00,64.0,57.4,30.04,East,86,1.8,12.1,79,0.00,BKN,,0.00,227.0,WeatherDisplay:10.37,2013-09-08 14:12:00,
2013-09-08 09:17:00,64.2,57.5,30.04,WSW,242,0.0,0.0,79,0.00,BKN,,0.00,229.0,WeatherDisplay:10.37,2013-09-08 14:17:00,
2013-09-08 09:22:00,64.5,57.8,30.04,ENE,59,0.0,1.1,79,0.00,BKN,,0.00,211.0,WeatherDisplay:10.37,2013-09-08 14:22:00,
2013-09-08 09:27:00,64.8,57.8,30.04,ENE,64,0.0,0.0,78,0.00,BKN,,0.00,216.0,WeatherDisplay:10.37,2013-09-08 14:27:00,
2013-09-08 09:32:00,65.0,58.0,30.05,NNE,26,2.2,6.6,78,0.00,BKN,,0.00,229.0,WeatherDisplay:10.37,2013-09-08 14:32:00,
2013-09-08 09:37:00,64.8,57.8,30.05,ENE,60,0.6,5.8,78,0.00,BKN,,0.00,264.0,WeatherDisplay:10.37,2013-09-08 14:37:00,
2013-09-08 09:42:00,65.0,58.0,30.05,ENE,62,0.8,4.4,78,0.00,SCT,,0.00,190.0,WeatherDisplay:10.37,2013-09-08 14:42:00,
2013-09-08 09:47:00,65.0,57.6,30.05,NW,323,2.4,10.4,77,0.00,SCT,,0.00,179.0,WeatherDisplay:10.37,2013-09-08 14:47:00,
2013-09-08 09:52:00,65.0,58.0,30.05,ENE,74,0.0,4.6,78,0.00,SCT,,0.00,232.0,WeatherDisplay:10.37,2013-09-08 14:52:00,
2013-09-08 09:57:00,65.5,58.5,30.05,East,96,0.0,6.9,78,0.00,SCT,,0.00,401.0,WeatherDisplay:10.37,2013-09-08 14:57:00,
2013-09-08 10:02:00,66.1,58.3,30.06,ESE,106,0.1,1.2,76,0.00,BKN,,0.00,315.0,WeatherDisplay:10.37,2013-09-08 15:02:00,
2013-09-08 10:07:00,66.1,57.9,30.06,SSE,167,0.2,6.9,75,0.00,BKN,,0.00,279.0,WeatherDisplay:10.37,2013-09-08 15:07:00,
2013-09-08 10:12:00,65.6,57.8,30.06,SSE,153,0.5,5.8,76,0.00,BKN,,0.00,292.0,WeatherDisplay:10.37,2013-09-08 15:12:00,
2013-09-08 10:17:00,65.8,58.4,30.06,East,83,1.9,6.9,77,0.00,BKN,,0.00,264.0,WeatherDisplay:10.37,2013-09-08 15:17:00,
2013-09-08 10:22:00,65.8,58.0,30.06,East,92,5.5,8.1,76,0.00,OVC,,0.00,267.0,WeatherDisplay:10.37,2013-09-08 15:22:00,
2013-09-08 10:27:00,65.6,57.8,30.06,ESE,106,1.2,5.8,76,0.00,OVC,,0.00,281.0,WeatherDisplay:10.37,2013-09-08 15:27:00,
2013-09-08 10:32:00,65.5,58.1,30.06,East,90,0.2,2.3,77,0.00,OVC,,0.00,248.0,WeatherDisplay:10.37,2013-09-08 15:32:00,
2013-09-08 10:37:00,65.5,58.1,30.06,ESE,115,0.0,2.3,77,0.00,OVC,,0.00,241.0,WeatherDisplay:10.37,2013-09-08 15:37:00,
2013-09-08 10:42:00,65.6,58.2,30.06,East,96,0.7,6.6,77,0.00,OVC,,0.00,260.0,WeatherDisplay:10.37,2013-09-08 15:42:00,
2013-09-08 10:47:00,66.0,58.2,30.06,SSE,168,0.0,1.2,76,0.00,OVC,,0.00,257.0,WeatherDisplay:10.37,2013-09-08 15:47:00,
2013-09-08 10:52:00,66.1,58.3,30.06,East,87,0.1,4.6,76,0.00,OVC,,0.00,225.0,WeatherDisplay:10.37,2013-09-08 15:52:00,
2013-09-08 10:57:00,66.4,59.0,30.06,East,82,0.5,3.3,77,0.00,OVC,,0.00,209.0,WeatherDisplay:10.37,2013-09-08 15:57:00,
2013-09-08 11:02:00,66.4,58.6,30.07,SSW,192,0.6,3.5,76,0.00,OVC,,0.00,276.0,WeatherDisplay:10.37,2013-09-08 16:02:00,
2013-09-08 11:07:00,66.6,58.8,30.07,ENE,75,1.0,5.8,76,0.00,OVC,,0.00,338.0,WeatherDisplay:10.37,2013-09-08 16:07:00,
2013-09-08 11:12:00,66.9,59.1,30.07,ESE,104,0.0,0.0,76,0.00,BKN,,0.00,350.0,WeatherDisplay:10.37,2013-09-08 16:12:00,
2013-09-08 11:17:00,67.1,58.9,30.07,North,360,0.9,8.1,75,0.00,BKN,,0.00,325.0,WeatherDisplay:10.37,2013-09-08 16:17:00,
2013-09-08 11:22:00,66.9,59.1,30.07,East,89,1.0,5.5,76,0.00,SCT,,0.00,345.0,WeatherDisplay:10.37,2013-09-08 16:22:00,
2013-09-08 11:27:00,67.4,59.6,30.07,ENE,69,0.3,2.3,76,0.00,SCT,,0.00,362.0,WeatherDisplay:10.37,2013-09-08 16:27:00,
2013-09-08 11:32:00,67.8,59.6,30.06,SSW,208,0.4,3.3,75,0.00,SCT,,0.00,403.0,WeatherDisplay:10.37,2013-09-08 16:32:00,
2013-09-08 11:37:00,68.3,59.7,30.06,ENE,71,0.3,2.3,74,0.00,SCT,,0.00,397.0,WeatherDisplay:10.37,2013-09-08 16:37:00,
2013-09-08 11:42:00,68.6,60.0,30.06,ENE,78,1.2,5.8,74,0.00,SCT,,0.00,355.0,WeatherDisplay:10.37,2013-09-08 16:42:00,
2013-09-08 11:47:00,69.1,60.1,30.06,East,88,0.7,4.4,73,0.00,SCT,,0.00,383.0,WeatherDisplay:10.37,2013-09-08 16:47:00,
2013-09-08 11:52:00,69.4,60.0,30.06,ENE,77,2.2,5.5,72,0.00,SCT,,0.00,315.0,WeatherDisplay:10.37,2013-09-08 16:52:00,
2013-09-08 11:57:00,69.3,59.9,30.06,NE,42,1.5,6.9,72,0.00,SCT,,0.00,295.0,WeatherDisplay:10.37,2013-09-08 16:57:00,
2013-09-08 12:02:00,69.1,59.7,30.05,ESE,107,2.4,5.5,72,0.00,SCT,,0.00,292.0,WeatherDisplay:10.37,2013-09-08 17:02:00,
2013-09-08 12:07:00,69.1,60.1,30.05,ENE,62,1.5,6.9,73,0.00,SCT,,0.00,283.0,WeatherDisplay:10.37,2013-09-08 17:07:00,
2013-09-08 12:12:00,69.1,59.7,30.05,ENE,61,0.0,5.8,72,0.00,SCT,,0.00,279.0,WeatherDisplay:10.37,2013-09-08 17:12:00,
2013-09-08 12:17:00,69.3,60.3,30.05,SE,145,0.1,2.3,73,0.00,SCT,,0.00,283.0,WeatherDisplay:10.37,2013-09-08 17:17:00,
2013-09-08 12:22:00,69.4,60.4,30.05,SE,144,0.0,1.2,73,0.00,BKN,,0.00,269.0,WeatherDisplay:10.37,2013-09-08 17:22:00,
2013-09-08 12:27:00,69.4,60.4,30.05,SE,144,0.0,1.2,73,0.00,BKN,,0.00,250.0,WeatherDisplay:10.37,2013-09-08 17:27:00,
2013-09-08 12:33:00,69.6,60.2,30.05,ENE,62,0.1,9.2,72,0.00,BKN,,0.00,283.0,WeatherDisplay:10.37,2013-09-08 17:33:00,
2013-09-08 12:38:00,69.8,60.4,30.05,NNW,340,0.8,3.3,72,0.00,BKN,,0.00,353.0,WeatherDisplay:10.37,2013-09-08 17:38:00,
2013-09-08 12:43:00,70.1,60.3,30.05,NE,55,1.4,5.5,71,0.00,OVC,,0.00,292.0,WeatherDisplay:10.37,2013-09-08 17:43:00,
2013-09-08 12:48:00,70.1,60.7,30.04,ESE,121,0.3,3.3,72,0.00,OVC,,0.00,281.0,WeatherDisplay:10.37,2013-09-08 17:48:00,
2013-09-08 12:53:00,70.1,60.7,30.04,East,90,0.0,5.8,72,0.00,OVC,,0.00,272.0,WeatherDisplay:10.37,2013-09-08 17:53:00,
2013-09-08 12:58:00,70.1,60.7,30.04,ENE,76,0.0,0.0,72,0.00,OVC,,0.00,274.0,WeatherDisplay:10.37,2013-09-08 17:58:00,
2013-09-08 13:03:00,70.3,60.8,30.03,NE,38,0.9,5.8,72,0.00,OVC,,0.00,330.0,WeatherDisplay:10.37,2013-09-08 18:03:00,
2013-09-08 13:08:00,70.4,60.5,30.03,East,100,0.0,3.5,71,0.00,OVC,,0.00,294.0,WeatherDisplay:10.37,2013-09-08 18:08:00,
2013-09-08 13:13:00,70.4,60.9,30.03,ENE,58,0.0,0.0,72,0.00,OVC,,0.00,202.0,WeatherDisplay:10.37,2013-09-08 18:13:00,
2013-09-08 13:18:00,70.4,60.9,30.03,NE,51,0.0,0.0,72,0.00,OVC,,0.00,214.0,WeatherDisplay:10.37,2013-09-08 18:18:00,
2013-09-08 13:23:00,70.4,61.3,30.03,NE,38,1.8,5.8,73,0.00,OVC,,0.00,213.0,WeatherDisplay:10.37,2013-09-08 18:23:00,
2013-09-08 13:28:00,70.1,61.4,30.03,NE,55,0.0,0.0,74,0.00,OVC,,0.00,229.0,WeatherDisplay:10.37,2013-09-08 18:28:00,
2013-09-08 13:33:00,70.1,61.0,30.03,East,79,1.1,6.9,73,0.00,OVC,,0.00,213.0,WeatherDisplay:10.37,2013-09-08 18:33:00,
2013-09-08 13:38:00,70.1,61.4,30.03,East,89,1.9,4.6,74,0.00,OVC,,0.00,209.0,WeatherDisplay:10.37,2013-09-08 18:38:00,
2013-09-08 13:43:00,70.1,61.4,30.03,East,88,0.0,1.2,74,0.00,OVC,,0.00,255.0,WeatherDisplay:10.37,2013-09-08 18:43:00,
2013-09-08 13:48:00,70.1,61.4,30.03,East,88,3.1,9.2,74,0.00,OVC,,0.00,250.0,WeatherDisplay:10.37,2013-09-08 18:48:00,
2013-09-08 13:53:00,70.3,61.6,30.03,ESE,104,1.8,8.1,74,0.00,OVC,,0.00,237.0,WeatherDisplay:10.37,2013-09-08 18:53:00,
2013-09-08 13:58:00,70.1,61.4,30.03,East,80,0.4,3.3,74,0.00,OVC,,0.00,193.0,WeatherDisplay:10.37,2013-09-08 18:58:00,
2013-09-08 14:03:00,70.3,62.0,30.03,East,80,0.0,1.1,75,0.00,OVC,,0.00,197.0,WeatherDisplay:10.37,2013-09-08 19:03:00,
2013-09-08 14:08:00,70.4,61.7,30.03,East,81,0.0,1.2,74,0.00,OVC,,0.00,185.0,WeatherDisplay:10.37,2013-09-08 19:08:00,
2013-09-08 14:13:00,70.4,61.7,30.03,East,91,0.6,5.5,74,0.00,OVC,,0.00,213.0,WeatherDisplay:10.37,2013-09-08 19:13:00,
2013-09-08 14:18:00,70.4,62.1,30.02,ENE,57,0.1,1.2,75,0.00,OVC,,0.00,279.0,WeatherDisplay:10.37,2013-09-08 19:18:00,
2013-09-08 14:23:00,70.8,62.1,30.02,NNE,28,0.5,4.6,74,0.00,OVC,,0.00,301.0,WeatherDisplay:10.37,2013-09-08 19:23:00,
2013-09-08 14:28:00,70.9,62.2,30.02,SSE,157,0.0,1.2,74,0.00,OVC,,0.00,309.0,WeatherDisplay:10.37,2013-09-08 19:28:00,
2013-09-08 14:33:00,70.8,61.7,30.01,ESE,104,3.3,8.1,73,0.00,OVC,,0.00,197.0,WeatherDisplay:10.37,2013-09-08 19:33:00,
2013-09-08 14:38:00,70.8,62.1,30.01,SSE,151,2.6,7.7,74,0.00,OVC,,0.00,162.0,WeatherDisplay:10.37,2013-09-08 19:38:00,
2013-09-08 14:43:00,70.6,62.3,30.01,South,169,0.0,1.1,75,0.00,OVC,,0.00,149.0,WeatherDisplay:10.37,2013-09-08 19:43:00,
2013-09-08 14:48:00,70.8,62.5,30.00,ENE,67,0.0,0.0,75,0.00,OVC,,0.00,162.0,WeatherDisplay:10.37,2013-09-08 19:48:00,
2013-09-08 14:53:00,70.8,62.1,30.00,NE,46,0.0,1.2,74,0.00,OVC,,0.00,179.0,WeatherDisplay:10.37,2013-09-08 19:53:00,
2013-09-08 14:58:00,70.6,62.3,30.00,ENE,78,0.3,2.3,75,0.00,OVC,,0.00,162.0,WeatherDisplay:10.37,2013-09-08 19:58:00,
2013-09-08 15:03:00,70.8,62.9,30.00,East,87,1.8,8.1,76,0.00,OVC,,0.00,227.0,WeatherDisplay:10.37,2013-09-08 20:03:00,
2013-09-08 15:08:00,70.8,62.5,30.00,ESE,103,1.5,6.6,75,0.00,OVC,,0.00,158.0,WeatherDisplay:10.37,2013-09-08 20:08:00,
2013-09-08 15:13:00,70.8,62.5,30.00,ENE,75,1.5,5.5,75,0.00,OVC,,0.00,137.0,WeatherDisplay:10.37,2013-09-08 20:13:00,
2013-09-08 15:18:00,70.6,62.3,30.00,ENE,75,0.1,1.1,75,0.00,OVC,,0.00,137.0,WeatherDisplay:10.37,2013-09-08 20:18:00,
2013-09-08 15:23:00,70.8,62.9,30.00,East,94,0.0,0.0,76,0.00,OVC,,0.00,134.0,WeatherDisplay:10.37,2013-09-08 20:23:00,
2013-09-08 15:28:00,70.9,63.0,30.00,ENE,65,0.0,0.0,76,0.00,OVC,,0.00,132.0,WeatherDisplay:10.37,2013-09-08 20:28:00,
2013-09-08 15:33:00,70.9,62.6,29.99,East,88,1.9,5.8,75,0.00,OVC,,0.00,195.0,WeatherDisplay:10.37,2013-09-08 20:33:00,
2013-09-08 15:38:00,71.1,62.8,29.99,East,97,0.0,1.2,75,0.00,OVC,,0.00,190.0,WeatherDisplay:10.37,2013-09-08 20:38:00,
2013-09-08 15:43:00,71.1,62.4,29.99,NE,36,1.3,3.5,74,0.00,OVC,,0.00,104.0,WeatherDisplay:10.37,2013-09-08 20:43:00,
2013-09-08 15:48:00,70.9,62.2,30.00,ENE,71,0.0,1.1,74,0.00,OVC,,0.00,146.0,WeatherDisplay:10.37,2013-09-08 20:48:00,
2013-09-08 15:53:00,70.9,62.6,30.00,ENE,70,0.0,0.0,75,0.00,OVC,,0.00,167.0,WeatherDisplay:10.37,2013-09-08 20:53:00,
2013-09-08 15:58:00,70.9,62.6,30.00,ENE,77,0.3,3.5,75,0.00,OVC,,0.00,155.0,WeatherDisplay:10.37,2013-09-08 20:58:00,
2013-09-08 16:03:00,70.9,62.6,29.99,ENE,74,0.0,2.3,75,0.00,OVC,,0.00,120.0,WeatherDisplay:10.37,2013-09-08 21:03:00,
2013-09-08 16:08:00,70.9,62.6,29.99,East,84,0.1,3.5,75,0.00,OVC,,0.00,88.0,WeatherDisplay:10.37,2013-09-08 21:08:00,
2013-09-08 16:13:00,70.9,62.6,29.99,ENE,69,0.0,1.2,75,0.00,OVC,,0.00,100.0,WeatherDisplay:10.37,2013-09-08 21:13:00,
2013-09-08 16:18:00,70.9,62.6,29.98,ENE,57,1.4,8.1,75,0.00,OVC,,0.00,98.0,WeatherDisplay:10.37,2013-09-08 21:18:00,
2013-09-08 16:23:00,70.8,62.9,29.98,East,88,0.0,1.2,76,0.00,OVC,,0.00,132.0,WeatherDisplay:10.37,2013-09-08 21:23:00,
2013-09-08 16:28:00,70.8,62.9,29.98,East,81,0.6,2.3,76,0.00,OVC,,0.00,218.0,WeatherDisplay:10.37,2013-09-08 21:28:00,
2013-09-08 16:33:00,70.9,63.0,29.97,East,80,0.0,1.1,76,0.00,OVC,,0.00,111.0,WeatherDisplay:10.37,2013-09-08 21:33:00,
2013-09-08 16:38:00,71.1,63.1,29.97,East,79,0.0,1.2,76,0.00,OVC,,0.00,155.0,WeatherDisplay:10.37,2013-09-08 21:38:00,
2013-09-08 16:43:00,71.1,63.1,29.97,NE,43,0.0,1.2,76,0.00,OVC,,0.00,98.0,WeatherDisplay:10.37,2013-09-08 21:43:00,
2013-09-08 16:48:00,71.1,63.1,29.97,South,184,0.0,1.2,76,0.00,OVC,,0.00,81.0,WeatherDisplay:10.37,2013-09-08 21:48:00,
2013-09-08 16:53:00,71.1,63.1,29.97,SSE,166,0.0,0.0,76,0.00,OVC,,0.00,79.0,WeatherDisplay:10.37,2013-09-08 21:53:00,
2013-09-08 16:58:00,71.1,63.1,29.97,East,86,0.0,0.0,76,0.00,OVC,,0.00,79.0,WeatherDisplay:10.37,2013-09-08 21:58:00,
2013-09-08 17:03:00,71.1,63.1,29.97,ESE,122,1.2,3.5,76,0.00,OVC,,0.00,97.0,WeatherDisplay:10.37,2013-09-08 22:03:00,
2013-09-08 17:08:00,71.3,63.7,29.97,ESE,122,0.0,0.0,77,0.00,OVC,,0.00,81.0,WeatherDisplay:10.37,2013-09-08 22:08:00,
2013-09-08 17:13:00,71.1,63.5,29.97,SW,227,1.6,4.4,77,0.00,OVC,,0.00,86.0,WeatherDisplay:10.37,2013-09-08 22:13:00,
2013-09-08 17:18:00,70.9,63.3,29.97,ENE,76,0.0,0.0,77,0.00,OVC,,0.00,58.0,WeatherDisplay:10.37,2013-09-08 22:18:00,
2013-09-08 17:23:00,70.9,63.3,29.97,ENE,78,0.7,4.4,77,0.00,OVC,,0.00,53.0,WeatherDisplay:10.37,2013-09-08 22:23:00,
2013-09-08 17:28:00,70.9,63.3,29.97,East,85,0.0,1.1,77,0.00,OVC,,0.00,49.0,WeatherDisplay:10.37,2013-09-08 22:28:00,
2013-09-08 17:33:00,70.9,63.7,29.95,SSE,153,0.0,1.1,78,0.00,OVC,,0.00,51.0,WeatherDisplay:10.37,2013-09-08 22:33:00,
2013-09-08 17:38:00,70.9,63.3,29.95,ESE,117,0.0,4.6,77,0.00,OVC,,0.00,42.0,WeatherDisplay:10.37,2013-09-08 22:38:00,
2013-09-08 17:43:00,70.9,63.3,29.95,ESE,114,1.1,5.5,77,0.00,OVC,,0.00,40.0,WeatherDisplay:10.37,2013-09-08 22:43:00,
2013-09-08 17:48:00,70.8,63.6,29.93,South,173,0.0,0.0,78,0.00,OVC,,0.00,63.0,WeatherDisplay:10.37,2013-09-08 22:48:00,
2013-09-08 17:53:00,70.8,64.0,29.93,SE,144,0.1,4.6,79,0.00,OVC,,0.00,74.0,WeatherDisplay:10.37,2013-09-08 22:53:00,
2013-09-08 17:58:00,70.8,64.0,29.93,SSE,151,1.8,8.1,79,0.00,OVC,,0.00,97.0,WeatherDisplay:10.37,2013-09-08 22:58:00,
2013-09-08 18:03:00,70.8,64.0,29.94,East,101,2.9,8.1,79,0.00,OVC,,0.00,97.0,WeatherDisplay:10.37,2013-09-08 23:03:00,
2013-09-08 18:08:00,70.8,64.0,29.94,East,89,2.2,5.8,79,0.00,OVC,,0.00,93.0,WeatherDisplay:10.37,2013-09-08 23:08:00,
2013-09-08 18:13:00,70.8,64.0,29.94,SE,140,0.0,0.0,79,0.00,OVC,,0.00,69.0,WeatherDisplay:10.37,2013-09-08 23:13:00,
2013-09-08 18:18:00,70.8,64.0,29.93,South,190,0.7,4.4,79,0.00,OVC,,0.00,54.0,WeatherDisplay:10.37,2013-09-08 23:18:00,
2013-09-08 18:23:00,70.6,63.8,29.93,ENE,76,2.9,6.9,79,0.00,OVC,,0.00,44.0,WeatherDisplay:10.37,2013-09-08 23:23:00,
2013-09-08 18:28:00,70.6,63.8,29.93,SSE,153,3.1,6.9,79,0.00,OVC,,0.00,39.0,WeatherDisplay:10.37,2013-09-08 23:28:00,
2013-09-08 18:33:00,70.4,63.9,29.93,ESE,119,0.0,4.6,80,0.00,OVC,,0.00,30.0,WeatherDisplay:10.37,2013-09-08 23:33:00,
2013-09-08 18:38:00,70.3,64.2,29.93,ESE,102,0.0,0.0,81,0.00,OVC,,0.00,19.0,WeatherDisplay:10.37,2013-09-08 23:38:00,
2013-09-08 18:43:00,70.3,64.2,29.93,SSE,158,0.5,4.6,81,0.00,OVC,,0.00,14.0,WeatherDisplay:10.37,2013-09-08 23:43:00,
2013-09-08 18:48:00,70.1,64.0,29.94,South,180,0.0,0.0,81,0.00,OVC,,0.00,16.0,WeatherDisplay:10.37,2013-09-08 23:48:00,
2013-09-08 18:53:00,69.9,63.8,29.94,East,84,0.5,3.3,81,0.00,OVC,,0.00,11.0,WeatherDisplay:10.37,2013-09-08 23:53:00,
2013-09-08 18:58:00,69.9,63.8,29.94,SSE,152,0.0,0.0,81,0.00,OVC,,0.00,9.0,WeatherDisplay:10.37,2013-09-08 23:58:00,
2013-09-08 19:03:00,69.9,64.2,29.94,SSE,152,0.0,0.0,82,0.00,OVC,,0.00,7.0,WeatherDisplay:10.37,2013-09-09 00:03:00,
2013-09-08 19:08:00,69.8,64.1,29.94,East,84,0.0,2.2,82,0.00,OVC,,0.00,5.0,WeatherDisplay:10.37,2013-09-09 00:08:00,
2013-09-08 19:13:00,69.8,64.1,29.94,East,80,0.0,0.0,82,0.00,OVC,,0.00,0.0,WeatherDisplay:10.37,2013-09-09 00:13:00,
2013-09-08 19:18:00,69.8,64.1,29.95,East,81,0.1,2.2,82,0.00,OVC,,0.00,0.0,WeatherDisplay:10.37,2013-09-09 00:18:00,
2013-09-08 19:23:00,69.6,63.9,29.95,ENE,70,0.9,3.3,82,0.00,OVC,,0.00,0.0,WeatherDisplay:10.37,2013-09-09 00:23:00,
2013-09-08 19:28:00,69.6,63.9,29.95,ENE,65,0.0,1.2,82,0.00,OVC,,0.00,0.0,WeatherDisplay:10.37,2013-09-09 00:28:00,
2013-09-08 19:33:00,69.4,63.7,29.95,ENE,67,0.0,0.0,82,0.00,OVC,,0.00,0.0,WeatherDisplay:10.37,2013-09-09 00:33:00,
2013-09-08 19:38:00,69.4,64.0,29.95,East,85,0.0,0.0,83,0.00,OVC,,0.00,0.0,WeatherDisplay:10.37,2013-09-09 00:38:00,
2013-09-08 19:43:00,69.4,64.0,29.95,East,85,0.0,0.0,83,0.00,OVC,,0.00,0.0,WeatherDisplay:10.37,2013-09-09 00:43:00,
2013-09-08 19:48:00,69.4,64.0,29.96,East,85,0.0,2.3,83,0.00,OVC,,0.00,0.0,WeatherDisplay:10.37,2013-09-09 00:48:00,
2013-09-08 19:53:00,69.3,64.3,29.96,East,85,0.0,0.0,84,0.00,OVC,,0.00,0.0,WeatherDisplay:10.37,2013-09-09 00:53:00,
2013-09-08 19:58:00,69.3,64.3,29.96,East,85,0.0,1.1,84,0.00,OVC,,0.00,0.0,WeatherDisplay:10.37,2013-09-09 00:58:00,
2013-09-08 20:03:00,69.1,64.1,29.95,East,85,0.1,1.1,84,0.00,OVC,,0.00,0.0,WeatherDisplay:10.37,2013-09-09 01:03:00,
2013-09-08 20:08:00,68.9,64.2,29.95,East,85,0.0,1.1,85,0.00,OVC,,0.00,0.0,WeatherDisplay:10.37,2013-09-09 01:08:00,
2013-09-08 20:13:00,68.8,64.1,29.95,East,81,0.0,0.0,85,0.00,OVC,,0.00,0.0,WeatherDisplay:10.37,2013-09-09 01:13:00,
2013-09-08 20:18:00,68.8,64.1,29.97,East,81,0.0,0.0,85,0.00,OVC,,0.00,0.0,WeatherDisplay:10.37,2013-09-09 01:18:00,
2013-09-08 20:23:00,68.8,64.1,29.97,East,81,0.0,0.0,85,0.00,OVC,,0.00,0.0,WeatherDisplay:10.37,2013-09-09 01:23:00,
2013-09-08 20:28:00,68.6,63.9,29.97,East,81,0.0,0.0,85,0.00,OVC,,0.00,0.0,WeatherDisplay:10.37,2013-09-09 01:28:00,
2013-09-08 20:33:00,68.6,64.2,29.96,East,81,0.1,1.1,86,0.00,OVC,,0.00,0.0,WeatherDisplay:10.37,2013-09-09 01:33:00,
2013-09-08 20:38:00,68.4,64.0,29.96,East,81,0.0,0.0,86,0.00,OVC,,0.00,0.0,WeatherDisplay:10.37,2013-09-09 01:38:00,
2013-09-08 20:43:00,68.4,64.0,29.96,East,81,0.0,0.0,86,0.00,OVC,,0.00,0.0,WeatherDisplay:10.37,2013-09-09 01:43:00,
2013-09-08 20:48:00,68.3,63.9,29.96,East,81,0.0,0.0,86,0.00,OVC,,0.00,0.0,WeatherDisplay:10.37,2013-09-09 01:48:00,
2013-09-08 20:53:00,68.1,64.1,29.96,East,81,0.3,2.2,87,0.00,OVC,,0.00,0.0,WeatherDisplay:10.37,2013-09-09 01:53:00,
2013-09-08 20:58:00,68.1,64.1,29.96,East,81,0.0,0.0,87,0.00,OVC,,0.00,0.0,WeatherDisplay:10.37,2013-09-09 01:58:00,
2013-09-08 21:03:00,68.1,64.4,29.98,East,81,0.0,0.0,88,0.00,OVC,,0.00,0.0,WeatherDisplay:10.37,2013-09-09 02:03:00,
2013-09-08 21:08:00,67.9,64.2,29.98,East,81,0.0,0.0,88,0.00,OVC,,0.00,0.0,WeatherDisplay:10.37,2013-09-09 02:08:00,
2013-09-08 21:13:00,67.8,64.1,29.98,East,81,0.0,1.2,88,0.00,OVC,,0.00,0.0,WeatherDisplay:10.37,2013-09-09 02:13:00,
2013-09-08 21:18:00,67.6,64.2,29.97,East,81,0.0,0.0,89,0.00,OVC,,0.00,0.0,WeatherDisplay:10.37,2013-09-09 02:18:00,
2013-09-08 21:23:00,67.4,64.0,29.97,ENE,66,1.2,5.8,89,0.00,OVC,,0.00,0.0,WeatherDisplay:10.37,2013-09-09 02:23:00,
2013-09-08 21:28:00,67.4,64.0,29.97,ENE,66,0.1,1.2,89,0.00,OVC,,0.00,0.0,WeatherDisplay:10.37,2013-09-09 02:28:00,
2013-09-08 21:33:00,67.4,64.0,29.97,East,80,0.1,1.1,89,0.00,OVC,,0.00,0.0,WeatherDisplay:10.37,2013-09-09 02:33:00,
2013-09-08 21:38:00,67.3,63.9,29.97,ENE,77,0.0,0.0,89,0.00,OVC,,0.00,0.0,WeatherDisplay:10.37,2013-09-09 02:38:00,
2013-09-08 21:43:00,67.3,63.9,29.97,ENE,77,0.0,1.1,89,0.00,OVC,,0.00,0.0,WeatherDisplay:10.37,2013-09-09 02:43:00,
2013-09-08 21:48:00,67.3,63.9,29.97,ENE,77,0.0,0.0,89,0.00,OVC,,0.00,0.0,WeatherDisplay:10.37,2013-09-09 02:48:00,
2013-09-08 21:53:00,67.3,63.9,29.97,ENE,77,0.0,0.0,89,0.00,OVC,,0.00,0.0,WeatherDisplay:10.37,2013-09-09 02:53:00,
2013-09-08 21:58:00,67.4,64.0,29.97,ENE,77,0.0,0.0,89,0.00,OVC,,0.00,0.0,WeatherDisplay:10.37,2013-09-09 02:58:00,
2013-09-08 22:03:00,67.4,64.0,29.97,ENE,77,0.0,0.0,89,0.00,OVC,,0.00,0.0,WeatherDisplay:10.37,2013-09-09 03:03:00,
2013-09-08 22:08:00,67.4,64.0,29.97,ENE,77,0.0,0.0,89,0.00,OVC,,0.00,0.0,WeatherDisplay:10.37,2013-09-09 03:08:00,
2013-09-08 22:13:00,67.3,63.9,29.97,ENE,77,0.0,1.2,89,0.00,OVC,,0.00,0.0,WeatherDisplay:10.37,2013-09-09 03:13:00,
2013-09-08 22:18:00,67.3,63.9,29.96,ENE,77,0.0,0.0,89,0.00,OVC,,0.00,0.0,WeatherDisplay:10.37,2013-09-09 03:18:00,
2013-09-08 22:23:00,67.3,63.6,29.96,ENE,77,0.0,0.0,88,0.00,OVC,,0.00,0.0,WeatherDisplay:10.37,2013-09-09 03:23:00,
2013-09-08 22:28:00,67.3,63.6,29.96,ENE,77,0.0,0.0,88,0.00,OVC,,0.00,0.0,WeatherDisplay:10.37,2013-09-09 03:28:00,
2013-09-08 22:33:00,67.3,63.6,29.96,ENE,77,0.0,0.0,88,0.00,OVC,,0.00,0.0,WeatherDisplay:10.37,2013-09-09 03:33:00,
2013-09-08 22:38:00,67.3,63.6,29.96,ENE,77,0.0,1.2,88,0.00,OVC,,0.00,0.0,WeatherDisplay:10.37,2013-09-09 03:38:00,
2013-09-08 22:43:00,67.3,63.6,29.96,ENE,77,0.0,1.1,88,0.00,OVC,,0.00,0.0,WeatherDisplay:10.37,2013-09-09 03:43:00,
2013-09-08 22:48:00,67.1,63.4,29.96,East,97,0.0,0.0,88,0.00,OVC,,0.00,0.0,WeatherDisplay:10.37,2013-09-09 03:48:00,
2013-09-08 22:53:00,67.1,63.4,29.96,East,94,0.0,1.2,88,0.00,OVC,,0.00,0.0,WeatherDisplay:10.37,2013-09-09 03:53:00,
2013-09-08 22:58:00,67.1,63.4,29.96,East,94,0.0,1.2,88,0.00,OVC,,0.00,0.0,WeatherDisplay:10.37,2013-09-09 03:58:00,
2013-09-08 23:01:00,67.3,63.6,29.96,East,94,0.0,0.0,88,0.00,OVC,,0.00,0.0,WeatherDisplay:10.37,2013-09-09 04:01:00,
2013-09-08 23:02:00,67.3,63.3,29.96,SSE,150,0.0,1.2,87,0.00,OVC,,0.00,0.0,WeatherDisplay:10.37,2013-09-09 04:02:00,
2013-09-08 23:07:00,67.1,63.1,29.96,SSE,149,0.0,0.0,87,0.00,OVC,,0.00,0.0,WeatherDisplay:10.37,2013-09-09 04:07:00,
2013-09-08 23:12:00,67.1,63.1,29.96,NNE,22,0.0,1.2,87,0.00,OVC,,0.00,0.0,WeatherDisplay:10.37,2013-09-09 04:12:00,
2013-09-08 23:17:00,67.1,63.4,29.96,NNE,22,0.7,2.3,88,0.00,OVC,,0.00,0.0,WeatherDisplay:10.37,2013-09-09 04:17:00,
2013-09-08 23:22:00,67.1,63.4,29.96,WSW,257,0.0,0.0,88,0.00,OVC,,0.00,0.0,WeatherDisplay:10.37,2013-09-09 04:22:00,
2013-09-08 23:27:00,66.9,63.2,29.96,WSW,257,0.0,0.0,88,0.00,OVC,,0.00,0.0,WeatherDisplay:10.37,2013-09-09 04:27:00,
2013-09-08 23:32:00,66.9,63.2,29.95,WSW,257,0.0,0.0,88,0.00,OVC,,0.00,0.0,WeatherDisplay:10.37,2013-09-09 04:32:00,
2013-09-08 23:37:00,66.9,63.2,29.95,WSW,257,0.1,1.2,88,0.00,OVC,,0.00,0.0,WeatherDisplay:10.37,2013-09-09 04:37:00,
2013-09-08 23:42:00,66.8,63.1,29.95,WSW,257,0.0,0.0,88,0.00,OVC,,0.00,0.0,WeatherDisplay:10.37,2013-09-09 04:42:00,
2013-09-08 23:47:00,66.8,63.1,29.94,ESE,103,0.1,1.2,88,0.00,OVC,,0.00,0.0,WeatherDisplay:10.37,2013-09-09 04:47:00,
2013-09-08 23:52:00,66.6,62.9,29.94,East,88,0.0,1.2,88,0.00,OVC,,0.00,0.0,WeatherDisplay:10.37,2013-09-09 04:52:00,
2013-09-08 23:57:00,66.6,62.9,29.94,East,100,1.3,4.6,88,0.00,OVC,,0.00,0.0,WeatherDisplay:10.37,2013-09-09 04:57:00,